createdAt,value
2022-08-28T00:03:17.670Z,92.51
2022-08-28T00:08:21.143Z,94.53
2022-08-28T00:13:26.021Z,93.30
2022-08-28T00:18:31.396Z,89.24
2022-08-28T00:23:42.970Z,87.93
2022-08-28T00:28:46.000Z,87.39
2022-08-28T00:33:50.830Z,87.66
2022-08-28T00:38:53.563Z,86.95
2022-08-28T00:44:08.405Z,86.47
2022-08-28T00:49:14.591Z,87.19
2022-08-28T00:54:19.143Z,90.92
2022-08-28T00:59:25.501Z,93.19
2022-08-28T01:04:32.314Z,88.62
2022-08-28T01:09:39.527Z,88.31
2022-08-28T01:14:45.708Z,88.32
2022-08-28T01:19:57.072Z,88.59
2022-08-28T01:25:03.414Z,89.50
2022-08-28T01:30:06.933Z,89.78
2022-08-28T01:35:14.728Z,89.39
2022-08-28T01:40:23.880Z,91.96
2022-08-28T01:45:27.148Z,95.92
2022-08-28T01:50:33.498Z,97.28
2022-08-28T01:55:37.921Z,98.18
2022-08-28T02:00:41.219Z,99.09
2022-08-28T02:05:45.980Z,98.69
2022-08-28T02:10:50.198Z,97.54
2022-08-28T02:15:52.965Z,93.55
2022-08-28T02:20:55.855Z,96.86
2022-08-28T02:26:00.087Z,94.07
2022-08-28T02:31:02.979Z,94.82
2022-08-28T02:36:06.263Z,94.78
2022-08-28T02:41:10.746Z,97.41
2022-08-28T02:46:14.144Z,98.96
2022-08-28T02:51:16.949Z,97.26
2022-08-28T02:56:21.060Z,96.22
2022-08-28T03:01:23.933Z,92.29
2022-08-28T03:06:26.707Z,92.34
2022-08-28T03:11:30.786Z,90.77
2022-08-28T03:16:34.168Z,90.50
2022-08-28T03:21:37.014Z,90.63
2022-08-28T03:26:41.162Z,89.82
2022-08-28T03:31:43.961Z,89.40
2022-08-28T03:36:46.711Z,88.27
2022-08-28T03:41:51.439Z,87.54
2022-08-28T03:46:54.244Z,86.89
2022-08-28T03:51:56.975Z,87.53
2022-08-28T03:57:01.139Z,87.25
2022-08-28T04:02:03.926Z,87.37
2022-08-28T04:07:07.021Z,88.10
2022-08-28T04:12:11.681Z,87.81
2022-08-28T04:17:14.543Z,90.47
2022-08-28T04:22:17.443Z,90.89
2022-08-28T04:27:22.560Z,91.16
2022-08-28T04:32:25.366Z,91.53
2022-08-28T04:37:28.133Z,91.93
2022-08-28T04:42:32.406Z,92.62
2022-08-28T04:47:36.834Z,92.63
2022-08-28T04:52:39.890Z,94.76
2022-08-28T04:57:44.014Z,93.36
2022-08-28T05:02:46.745Z,93.88
2022-08-28T05:07:49.530Z,91.29
2022-08-28T05:12:53.639Z,89.83
2022-08-28T05:17:56.394Z,89.66
2022-08-28T05:22:59.111Z,90.52
2022-08-28T05:28:03.592Z,89.65
2022-08-28T05:33:06.824Z,88.60
2022-08-28T05:38:10.334Z,89.18
2022-08-28T05:43:16.377Z,90.14
2022-08-28T05:48:19.334Z,86.59
2022-08-28T05:53:22.086Z,86.24
2022-08-28T05:58:33.439Z,85.23
2022-08-28T06:03:37.422Z,84.10
2022-08-28T06:08:58.769Z,87.27
2022-08-28T06:14:06.463Z,84.85
2022-08-28T06:19:10.379Z,84.05
2022-08-28T06:24:13.410Z,83.05
2022-08-28T06:29:18.379Z,81.15
2022-08-28T06:34:24.387Z,79.66
2022-08-28T06:39:27.263Z,78.99
2022-08-28T06:44:32.249Z,77.47
2022-08-28T06:49:35.622Z,76.93
2022-08-28T06:54:38.349Z,76.12
2022-08-28T06:59:44.719Z,75.80
2022-08-28T07:04:47.424Z,74.52
2022-08-28T07:09:50.320Z,74.18
2022-08-28T07:14:54.439Z,73.68
2022-08-28T07:19:57.307Z,72.83
2022-08-28T07:25:00.219Z,72.49
2022-08-28T07:30:06.319Z,71.02
2022-08-28T07:35:10.641Z,70.22
2022-08-28T07:40:13.986Z,68.56
2022-08-28T07:45:18.347Z,67.45
2022-08-28T07:50:21.302Z,65.78
2022-08-28T07:55:24.133Z,64.52
2022-08-28T08:00:28.211Z,64.57
2022-08-28T08:05:30.887Z,63.08
2022-08-28T08:10:34.211Z,64.35
2022-08-28T08:15:38.527Z,64.13
2022-08-28T08:20:41.281Z,64.58
2022-08-28T08:25:44.004Z,64.72
2022-08-28T08:30:48.140Z,63.80
2022-08-28T08:35:51.078Z,59.95
2022-08-28T08:40:53.987Z,58.56
2022-08-28T08:45:58.474Z,55.93
2022-08-28T08:51:06.277Z,55.35
2022-08-28T08:56:13.176Z,54.64
2022-08-28T09:01:22.857Z,53.70
2022-08-28T09:06:32.152Z,52.38
2022-08-28T09:11:51.029Z,53.50
2022-08-28T09:17:01.946Z,51.78
2022-08-28T09:22:05.055Z,51.42
2022-08-28T09:27:15.611Z,51.29
2022-08-28T09:32:25.389Z,50.26
2022-08-28T09:37:32.077Z,47.93
2022-08-28T09:42:52.237Z,49.29
2022-08-28T09:47:58.204Z,49.01
2022-08-28T09:53:16.551Z,47.85
2022-08-28T09:58:19.932Z,48.22
2022-08-28T10:03:29.287Z,48.50
2022-08-28T10:08:50.982Z,48.80
2022-08-28T10:14:03.575Z,47.36
2022-08-28T10:19:16.227Z,47.12
2022-08-28T10:24:33.245Z,46.00
2022-08-28T10:29:49.549Z,46.33
2022-08-28T10:35:04.297Z,45.72
2022-08-28T10:40:14.627Z,45.72
2022-08-28T10:45:21.823Z,45.89
2022-08-28T10:50:29.953Z,43.96
2022-08-28T10:55:38.806Z,43.28
2022-08-28T11:00:44.120Z,43.74
2022-08-28T11:05:54.321Z,42.60
2022-08-28T11:10:58.687Z,42.31
2022-08-28T11:16:11.733Z,41.78
2022-08-28T11:21:22.493Z,40.61
2022-08-28T11:26:33.905Z,40.09
2022-08-28T11:31:41.617Z,39.53
2022-08-28T11:37:01.290Z,38.74
2022-08-28T11:42:38.168Z,37.00
2022-08-28T11:47:58.888Z,38.26
2022-08-28T11:53:31.512Z,37.09
2022-08-28T11:58:43.953Z,37.06
2022-08-28T12:03:57.102Z,36.62
2022-08-28T12:09:05.525Z,35.02
2022-08-28T12:14:09.731Z,34.58
2022-08-28T12:19:28.747Z,33.36
2022-08-28T12:24:36.568Z,32.36
2022-08-28T12:29:47.129Z,33.56
2022-08-28T12:35:04.371Z,31.44
2022-08-28T12:40:16.655Z,31.46
2022-08-28T12:45:24.514Z,30.86
2022-08-28T12:50:32.185Z,32.44
2022-08-28T12:55:38.492Z,29.53
2022-08-28T13:00:53.476Z,29.11
2022-08-28T13:06:00.153Z,29.09
2022-08-28T13:11:04.570Z,29.39
2022-08-28T13:16:09.467Z,29.29
2022-08-28T13:21:33.993Z,28.77
2022-08-28T13:26:38.944Z,29.38
2022-08-28T13:31:42.587Z,29.08
2022-08-28T13:36:48.332Z,27.91
2022-08-28T13:41:55.885Z,28.67
2022-08-28T13:47:00.680Z,30.10
2022-08-28T13:52:06.710Z,30.58
2022-08-28T13:57:11.285Z,32.47
2022-08-28T14:02:33.269Z,32.58
2022-08-28T14:07:36.902Z,34.31
2022-08-28T14:12:43.091Z,33.94
2022-08-28T14:17:46.086Z,33.86
2022-08-28T14:22:48.818Z,33.54
2022-08-28T14:27:53.133Z,34.00
2022-08-28T14:32:55.835Z,34.68
2022-08-28T14:37:58.534Z,35.08
2022-08-28T14:43:02.647Z,34.35
2022-08-28T14:48:05.419Z,33.26
2022-08-28T14:53:09.685Z,33.83
2022-08-28T14:58:14.114Z,33.70
2022-08-28T15:03:18.459Z,34.02
2022-08-28T15:08:21.160Z,34.07
2022-08-28T15:13:25.833Z,33.08
2022-08-28T15:18:34.354Z,28.00
2022-08-28T15:23:37.031Z,26.88
2022-08-28T15:28:42.021Z,23.98
2022-08-28T15:33:45.553Z,23.08
2022-08-28T15:39:06.152Z,22.49
2022-08-28T15:44:14.876Z,22.68
2022-08-28T15:49:19.631Z,21.57
2022-08-28T15:54:23.731Z,23.64
2022-08-28T15:59:47.878Z,27.09
2022-08-28T16:04:51.412Z,26.73
2022-08-28T16:09:54.465Z,25.68
2022-08-28T16:14:58.652Z,27.54
2022-08-28T16:20:01.466Z,28.23
2022-08-28T16:25:04.543Z,27.91
2022-08-28T16:30:15.688Z,30.91
2022-08-28T16:35:19.086Z,31.58
2022-08-28T16:40:22.042Z,31.58
2022-08-28T16:45:26.500Z,32.84
2022-08-28T16:50:32.287Z,31.78
2022-08-28T16:55:35.577Z,34.14
2022-08-28T17:00:44.527Z,35.02
2022-08-28T17:05:57.553Z,32.68
2022-08-28T17:11:01.326Z,34.76
2022-08-28T17:16:05.931Z,35.92
2022-08-28T17:21:26.634Z,37.55
2022-08-28T17:26:29.410Z,37.93
2022-08-28T17:31:33.657Z,38.42
2022-08-28T17:36:37.785Z,39.45
2022-08-28T17:41:40.729Z,40.60
2022-08-28T17:46:44.976Z,40.73
2022-08-28T17:51:47.790Z,41.98
2022-08-28T17:56:51.446Z,42.15
2022-08-28T18:01:55.840Z,42.24
2022-08-28T18:06:58.866Z,42.75
2022-08-28T18:12:02.012Z,42.92
2022-08-28T18:17:06.221Z,43.60
2022-08-28T18:22:13.481Z,43.71
2022-08-28T18:27:16.396Z,43.96
2022-08-28T18:32:20.821Z,45.46
2022-08-28T18:37:23.545Z,46.14
2022-08-28T18:42:26.459Z,46.53
2022-08-28T18:47:30.575Z,46.90
2022-08-28T18:52:33.589Z,47.09
2022-08-28T18:57:36.345Z,47.68
2022-08-28T19:02:41.806Z,47.97
2022-08-28T19:07:45.753Z,48.45
2022-08-28T19:12:48.559Z,48.39
2022-08-28T19:17:54.639Z,49.05
2022-08-28T19:22:58.338Z,49.34
2022-08-28T19:28:02.397Z,50.42
2022-08-28T19:33:06.770Z,50.62
2022-08-28T19:38:09.993Z,53.16
2022-08-28T19:43:16.601Z,53.20
2022-08-28T19:48:21.415Z,52.19
2022-08-28T19:53:24.179Z,53.75
2022-08-28T19:58:27.334Z,53.59
2022-08-28T20:03:31.760Z,53.25
2022-08-28T20:08:36.179Z,53.46
2022-08-28T20:13:39.986Z,54.32
2022-08-28T20:18:44.455Z,54.10
2022-08-28T20:23:47.842Z,56.40
2022-08-28T20:28:52.545Z,55.78
2022-08-28T20:33:56.683Z,55.88
2022-08-28T20:38:59.992Z,56.18
2022-08-28T20:44:04.960Z,57.73
2022-08-28T20:49:09.292Z,59.25
2022-08-28T20:54:12.709Z,59.82
2022-08-28T20:59:15.590Z,59.78
2022-08-28T21:04:19.979Z,58.93
2022-08-28T21:09:23.541Z,57.81
2022-08-28T21:14:51.411Z,58.18
2022-08-28T21:19:55.950Z,58.58
2022-08-28T21:24:59.147Z,61.57
2022-08-28T21:30:02.659Z,61.66
2022-08-28T21:35:09.256Z,62.79
2022-08-28T21:40:15.426Z,65.19
2022-08-28T21:45:18.329Z,62.41
2022-08-28T21:50:22.422Z,61.38
2022-08-28T21:55:25.287Z,61.53
2022-08-28T22:00:28.119Z,61.75
2022-08-28T22:05:32.333Z,61.98
2022-08-28T22:10:38.602Z,62.66
2022-08-28T22:15:46.037Z,64.56
2022-08-28T22:21:07.909Z,64.92
2022-08-28T22:26:13.395Z,65.71
2022-08-28T22:31:16.255Z,68.49
2022-08-28T22:36:22.703Z,67.89
2022-08-28T22:41:25.642Z,65.69
2022-08-28T22:46:29.176Z,68.92
2022-08-28T22:51:34.724Z,70.41
2022-08-28T22:56:37.527Z,66.51
2022-08-28T23:01:42.346Z,67.72
2022-08-28T23:06:46.439Z,66.81
2022-08-28T23:11:49.427Z,68.24
2022-08-28T23:16:54.869Z,72.87
2022-08-28T23:21:59.747Z,74.64
2022-08-28T23:27:19.419Z,75.66
2022-08-28T23:32:25.471Z,76.63
2022-08-28T23:37:29.588Z,76.00
2022-08-28T23:42:34.096Z,72.97
2022-08-28T23:47:40.356Z,72.92
2022-08-28T23:52:46.672Z,73.77
2022-08-28T23:57:52.162Z,72.82
